METAR Reports

Area Airport Weather Conditions

KBDL - Windsor Locks, Connecticut, USA
Distance from station: NE 45mi, 72km
Updated: 4:51PM EDT, May 23, 2019
Overcast
Overcast
 Wind from S
Wind: S 14 mph , 22 km/h
Temperature: 70°F , 21°C
Dew Point: 52°F , 11°C
Humidity: 53%
Barometer: 29.94 inHg , 1013.9 hPa
Clouds: Overcast
Visibility: 10 miles , 16 km
Cloud details: Mostly cloudy 4000 ft
Mostly cloudy 12000 ft
Mostly cloudy 15000 ft
Overcast 25000 ft
2019/05/23 20:51 KBDL 232051Z 17012KT 10SM BKN040 BKN120 BKN150 OVC250 21/11 A2994 RMK AO2 TSE14 PRESFR SLP138 CB DSNT NE-E MOV E SHRA DSNT N-NE TS MOV E T02110111 58028
KDXR - Danbury, Connecticut, USA
Distance from station: SSW 15mi, 24km
Updated: 4:53PM EDT, May 23, 2019
Partly cloudy
Partly cloudy
 Wind from SSW
Wind: SSW 5 mph , 7 km/h
Temperature: 66°F , 19°C
Dew Point: 54°F , 12°C
Humidity: 64%
Barometer: 29.95 inHg , 1014.2 hPa
Clouds: Partly cloudy
Visibility: 10 miles , 16 km
Cloud details: Partly cloudy 11000 ft
2019/05/23 20:53 KDXR 232053Z 21004KT 10SM SCT110 19/12 A2995 RMK AO2 RAB10E33 SLP139 P0000 60000 T01940122 58035
 
KOXC - Oxford/Waterbury, Connecticut, USA
Distance from station: ESE 16mi, 26km
Updated: 5:51PM EDT, May 23, 2019
Mostly cloudy
Mostly cloudy
 Wind from S
Wind: S 9 mph , 15 km/h
Temperature: 64°F , 18°C
Dew Point: 57°F , 14°C
Humidity: 78%
Barometer: 29.93 inHg , 1013.5 hPa
Clouds: Mostly cloudy
Visibility: 10 miles , 16 km
Cloud details: Mostly cloudy 12000 ft
2019/05/23 21:51 KOXC 232151Z 19008KT 10SM BKN120 18/14 A2993 RMK AO2 RAE21 PRESFR SLP146 P0000 T01780139
KPOU - Poughkeepsie, New York, USA
Distance from station: W 25mi, 40km
Updated: 4:53PM EDT, May 23, 2019
Clear
Clear
 Wind from S
Wind: S 6 mph , 9 km/h
Temperature: 70°F , 21°C
Dew Point: 55°F , 13°C
Humidity: 60%
Barometer: 29.91 inHg , 1012.9 hPa
Clouds: Clear
Visibility: 10 miles , 16 km
2019/05/23 20:53 KPOU 232053Z 19005KT 10SM CLR 21/13 A2991 RMK AO2 SLP126 T02110133 58028
 
KMMK - Meriden, Connecticut, USA
Distance from station: E 30mi, 48km
Updated: 4:53PM EDT, May 23, 2019
Partly cloudy
Partly cloudy
 Wind from SSE
Wind: SSE 7 mph , 11 km/h, Gust: 17 mph , 28 km/h
Temperature: 66°F , 19°C
Dew Point: 54°F , 12°C
Humidity: 64%
Barometer: 29.95 inHg , 1014.2 hPa
Clouds: Partly cloudy
Visibility: 10 miles , 16 km
Cloud details: Few Clouds 5500 ft
Few Clouds 9500 ft
Partly cloudy 11000 ft
2019/05/23 20:53 KMMK 232053Z AUTO 16006G15KT 10SM FEW055 FEW095 SCT110 19/12 A2995 RMK AO2 RAB38E48 PRESFR SLP143 P0000 60000 T01890122 58034
KBDR - Bridgeport, Connecticut, USA
Distance from station: SSE 32mi, 51km
Updated: 4:52PM EDT, May 23, 2019
Light rain, Mostly cloudy
Light rain, Mostly cloudy
 Wind from SSE
Wind: SSE 8 mph , 13 km/h
Temperature: 64°F , 18°C
Dew Point: 57°F , 14°C
Humidity: 78%
Barometer: 29.94 inHg , 1013.9 hPa
Summary: Light rain
Clouds: Mostly cloudy
Visibility: 10 miles , 16 km
Cloud details: Few Clouds 2900 ft
Mostly cloudy 11000 ft
2019/05/23 20:52 KBDR 232052Z 16007KT 10SM -RA FEW029 BKN110 18/14 A2994 RMK AO2 RAB33 SLP138 P0000 60000 T01830144 58044
 
KHVN - New Haven/Tweed, Connecticut, USA
Distance from station: SE 35mi, 57km
Updated: 4:53PM EDT, May 23, 2019
Mostly cloudy
Mostly cloudy
 Wind from S
Wind: S 9 mph , 15 km/h
Temperature: 64°F , 18°C
Dew Point: 57°F , 14°C
Humidity: 78%
Barometer: 29.96 inHg , 1014.6 hPa
Clouds: Mostly cloudy
Visibility: 10 miles , 16 km
Cloud details: Partly cloudy 5000 ft
Mostly cloudy 10000 ft
Mostly cloudy 12000 ft
2019/05/23 20:53 KHVN 232053Z 17008KT 10SM SCT050 BKN100 BKN120 18/14 A2996 RMK AO2 PRESFR SLP143 T01780139 58041
KSWF - Newburgh/Stewart, New York, USA
Distance from station: W 35mi, 57km
Updated: 5:45PM EDT, May 23, 2019
Mostly cloudy
Mostly cloudy
 Wind from SSW
Wind: SSW 6 mph , 9 km/h
Temperature: 70°F , 21°C
Dew Point: 63°F , 17°C
Humidity: 78%
Barometer: 29.90 inHg , 1012.5 hPa
Clouds: Mostly cloudy
Visibility: 10 miles , 16 km
Cloud details: Mostly cloudy 10000 ft
2019/05/23 21:45 KSWF 232145Z 21005KT 10SM BKN100 21/17 A2990
 
KHPN - White Plains, New York, USA
Distance from station: SSW 38mi, 62km
Updated: 4:56PM EDT, May 23, 2019
Partly cloudy
Partly cloudy
 Wind from varies
Wind: varies 7 mph , 11 km/h
Temperature: 66°F , 19°C
Dew Point: 61°F , 16°C
Humidity: 83%
Barometer: 29.96 inHg , 1014.6 hPa
Clouds: Partly cloudy
Visibility: 10 miles , 16 km
Cloud details: Partly cloudy 12000 ft
2019/05/23 20:56 KHPN 232056Z VRB06KT 10SM SCT120 19/16 A2996 RMK AO2 RAE31 SLP143 P0002 60002 T01940156 58026
KHFD - Hartford/Brainar, Connecticut, USA
Distance from station: ENE 41mi, 65km
Updated: 4:53PM EDT, May 23, 2019
Partly cloudy
Partly cloudy
 Wind from SSE
Wind: SSE 12 mph , 19 km/h
Temperature: 66°F , 19°C
Dew Point: 54°F , 12°C
Humidity: 64%
Barometer: 29.95 inHg , 1014.2 hPa
Clouds: Partly cloudy
Visibility: 10 miles , 16 km
Cloud details: Few Clouds 3300 ft
Partly cloudy 12000 ft
2019/05/23 20:53 KHFD 232053Z 16010KT 10SM FEW033 SCT120 19/12 A2995 RMK AO2 PRESFR SLP141 T01890122 58030